LGAV/ATH METAR and TAF weather

Enter ICAO airport designator
Station Type Date Time Source
LGAV METAR 2022/12/05 13:50 UTC NOAA

LGAV 051350Z 04013KT 9999 SCT025 15/08 Q1024 NOSIG


Station Type Date Time Source
LGAV Decoded METAR 2022/12/05 13:50 UTC NOAA

Athens Eleftherios Venizelos International Airport, Greece (LGAV) 37-56N 023-56E
Dec 05, 2022 - 08:50 AM EST / 2022.12.05 1350 UTC
Wind: from the NE (040 degrees) at 15 MPH (13 KT):0
Visibility: greater than 7 mile(s):0
Sky conditions: partly cloudy
Temperature: 59 F (15 C)
Dew Point: 46 F (8 C)
Relative Humidity: 62%
Pressure (altimeter): 30.24 in. Hg (1024 hPa)
ob: LGAV 051350Z 04013KT 9999 SCT025 15/08 Q1024 NOSIG
cycle: 14

Station Type Date Time Source
LGAV TAF 2022/12/05 12:12 UTC NOAA

TAF TAF LGAV 051100Z 0512/0612 02014KT 9999 FEW020 SCT035
BECMG 0519/0521 VRB03KT

Example: see airport list